Time;durP1;ratioP1;P1;durP2;ratioP2;P2;SDS_P1;SDS_P2;PMS_P1;PMS_P2;Temp;Humidity;BMP_temperature;BMP_pressure;BME280_temperature;BME280_humidity;BME280_pressure;Samples;Min_cycle;Max_cycle;Signal;HPM_P1;HPM_P2
2022/02/20 00:01:30;;;;;;;4.40;4.00;;;4.00;99.90;;;;;;5055532;28;20195;-48
2022/02/20 00:03:59;;;;;;;10.77;4.73;;;4.00;99.90;;;;;;5067506;28;20194;-47
2022/02/20 00:06:25;;;;;;;6.73;4.47;;;4.00;99.90;;;;;;5071262;28;20194;-46
2022/02/20 00:08:54;;;;;;;7.17;4.30;;;4.00;99.90;;;;;;5070297;28;20291;-44
2022/02/20 00:11:22;;;;;;;6.80;4.00;;;4.10;99.90;;;;;;5071541;28;20206;-49
2022/02/20 00:13:50;;;;;;;5.53;3.87;;;4.10;99.90;;;;;;5062020;28;20207;-46
2022/02/20 00:16:17;;;;;;;7.27;3.70;;;4.00;99.90;;;;;;5068081;28;20241;-46
2022/02/20 00:19:05;;;;;;;7.67;3.67;;;4.10;99.90;;;;;;5071815;28;20705;-44
2022/02/20 00:21:32;;;;;;;7.53;3.50;;;4.10;99.90;;;;;;5061649;28;20800;-45
2022/02/20 00:23:59;;;;;;;5.70;3.40;;;4.10;99.90;;;;;;5071954;28;20199;-45
2022/02/20 00:26:27;;;;;;;10.97;3.73;;;4.00;99.90;;;;;;5079153;28;20190;-46
2022/02/20 00:28:54;;;;;;;5.77;3.77;;;4.10;99.90;;;;;;5072211;28;20230;-44
2022/02/20 00:31:21;;;;;;;6.30;4.20;;;4.10;99.90;;;;;;5049660;28;20674;-44
2022/02/20 00:33:48;;;;;;;5.13;3.90;;;4.10;99.90;;;;;;5074889;28;20197;-46
2022/02/20 00:36:15;;;;;;;5.63;3.90;;;4.10;99.90;;;;;;5062286;28;20702;-45
2022/02/20 00:38:42;;;;;;;4.30;3.20;;;4.10;99.90;;;;;;5063033;28;20198;-46
2022/02/20 00:41:09;;;;;;;3.23;2.87;;;4.00;99.90;;;;;;5069427;28;20202;-44
2022/02/20 00:43:38;;;;;;;6.47;3.20;;;4.00;99.90;;;;;;5074504;28;20208;-46
2022/02/20 00:46:06;;;;;;;4.30;2.90;;;4.00;99.90;;;;;;5067053;28;20290;-46
2022/02/20 00:48:33;;;;;;;2.40;2.20;;;4.00;99.90;;;;;;5064057;28;20897;-44
2022/02/20 00:50:59;;;;;;;3.80;2.13;;;4.00;99.90;;;;;;5064262;28;20202;-44
2022/02/20 00:53:27;;;;;;;4.83;2.03;;;4.00;99.90;;;;;;5060382;28;20205;-44
2022/02/20 00:55:54;;;;;;;2.73;1.90;;;4.00;99.90;;;;;;5062929;28;20207;-46
2022/02/20 00:58:21;;;;;;;2.00;1.43;;;4.00;99.90;;;;;;5065030;28;20226;-44
2022/02/20 01:00:50;;;;;;;3.63;2.20;;;4.00;99.90;;;;;;5057160;28;20227;-46
2022/02/20 01:03:17;;;;;;;1.80;1.70;;;4.00;99.90;;;;;;5061744;28;20202;-45
2022/02/20 01:05:46;;;;;;;2.10;1.60;;;4.00;99.90;;;;;;5067946;28;20939;-44
2022/02/20 01:08:15;;;;;;;2.77;1.60;;;4.00;99.90;;;;;;5063544;28;20202;-43
2022/02/20 01:10:45;;;;;;;1.93;1.80;;;4.10;99.90;;;;;;5067561;28;20941;-43
2022/02/20 01:13:12;;;;;;;3.10;1.87;;;4.00;99.90;;;;;;5068340;28;20283;-44
2022/02/20 01:15:39;;;;;;;3.47;1.80;;;4.00;99.90;;;;;;5061417;28;20190;-43
2022/02/20 01:18:08;;;;;;;2.57;1.50;;;4.00;99.90;;;;;;5048862;28;20211;-43
2022/02/20 01:20:35;;;;;;;4.63;1.63;;;4.10;99.90;;;;;;5060283;28;20225;-43
2022/02/20 01:23:01;;;;;;;1.77;1.60;;;4.00;99.90;;;;;;5075363;28;20801;-43
2022/02/20 01:25:28;;;;;;;2.03;1.30;;;4.00;99.90;;;;;;5065405;28;20206;-44
2022/02/20 01:27:57;;;;;;;1.43;1.27;;;4.00;99.90;;;;;;5062230;28;20644;-43
2022/02/20 01:30:23;;;;;;;2.53;1.30;;;4.00;99.90;;;;;;5066919;28;20301;-46
2022/02/20 01:32:50;;;;;;;1.43;1.20;;;4.00;99.90;;;;;;5049384;28;20213;-45
2022/02/20 01:35:19;;;;;;;2.30;1.10;;;4.00;99.90;;;;;;5064151;28;20202;-48
2022/02/20 01:37:48;;;;;;;2.33;1.30;;;4.00;99.90;;;;;;5068014;28;20211;-47
2022/02/20 01:40:16;;;;;;;0.97;0.97;;;4.00;99.90;;;;;;5076588;28;20292;-44
2022/02/20 01:42:43;;;;;;;1.33;1.20;;;4.00;99.90;;;;;;5070744;28;21021;-44
2022/02/20 01:45:13;;;;;;;1.90;1.27;;;3.90;99.90;;;;;;5075967;28;20201;-46
2022/02/20 01:47:40;;;;;;;1.40;1.10;;;4.00;99.90;;;;;;5042261;28;20205;-43
2022/02/20 01:50:08;;;;;;;3.73;1.10;;;3.90;99.90;;;;;;5097693;27;20226;-45
2022/02/20 01:52:38;;;;;;;1.50;1.03;;;3.90;99.90;;;;;;5061371;28;20202;-44
2022/02/20 01:55:08;;;;;;;1.00;1.00;;;3.90;99.90;;;;;;5089949;28;20209;-44
2022/02/20 01:57:48;;;;;;;1.83;1.00;;;3.90;99.90;;;;;;5061367;28;20267;-44
2022/02/20 02:00:48;;;;;;;1.83;1.30;;;3.90;99.90;;;;;;5033500;28;20317;-49
2022/02/20 02:03:35;;;;;;;2.03;1.10;;;3.80;99.90;;;;;;5049917;28;20225;-43
2022/02/20 02:06:12;;;;;;;1.40;1.20;;;3.80;99.90;;;;;;5067359;28;20762;-44
2022/02/20 02:08:41;;;;;;;1.40;1.30;;;3.90;99.90;;;;;;5059581;28;20182;-44
2022/02/20 02:11:13;;;;;;;1.97;1.50;;;3.80;99.90;;;;;;5069161;28;20289;-45
2022/02/20 02:14:03;;;;;;;2.00;1.10;;;3.80;99.90;;;;;;5055149;28;20206;-44
2022/02/20 02:16:56;;;;;;;2.13;1.10;;;3.80;99.90;;;;;;5048968;28;20306;-43
2022/02/20 02:19:32;;;;;;;1.90;1.37;;;3.80;99.90;;;;;;5051058;28;20238;-44
2022/02/20 02:22:13;;;;;;;1.30;1.20;;;3.80;99.90;;;;;;5058246;28;20203;-43
2022/02/20 02:25:02;;;;;;;2.10;1.50;;;3.80;99.90;;;;;;5061886;28;20293;-44
2022/02/20 02:27:42;;;;;;;1.60;1.50;;;3.80;99.90;;;;;;5066658;28;20201;-44
2022/02/20 02:30:28;;;;;;;3.43;1.80;;;3.80;99.90;;;;;;5058935;28;20241;-43
2022/02/20 02:32:55;;;;;;;4.63;1.40;;;3.80;99.90;;;;;;5068610;28;20202;-48
2022/02/20 02:35:22;;;;;;;2.30;1.50;;;3.80;99.90;;;;;;5046345;28;20219;-43
2022/02/20 02:37:53;;;;;;;3.07;2.43;;;3.80;99.90;;;;;;5062676;28;20215;-44
2022/02/20 02:40:22;;;;;;;2.43;1.60;;;3.80;99.90;;;;;;5074185;28;20285;-43
2022/02/20 02:42:50;;;;;;;1.97;1.80;;;3.70;99.90;;;;;;5065224;28;20225;-44
2022/02/20 02:45:17;;;;;;;1.73;1.50;;;3.70;99.90;;;;;;5062119;28;20216;-43
2022/02/20 02:47:45;;;;;;;2.33;1.87;;;3.80;99.90;;;;;;5073321;28;20281;-43
2022/02/20 02:50:14;;;;;;;1.90;1.80;;;3.70;99.90;;;;;;5049267;28;20692;-43
2022/02/20 02:52:41;;;;;;;2.43;2.23;;;3.80;99.90;;;;;;5069037;28;20218;-45
2022/02/20 02:55:09;;;;;;;6.87;1.80;;;3.80;99.90;;;;;;5071888;28;20213;-44
2022/02/20 02:57:37;;;;;;;1.97;1.77;;;3.80;99.90;;;;;;5058317;28;20234;-45
2022/02/20 03:00:04;;;;;;;2.37;2.10;;;3.80;99.90;;;;;;5069572;28;20222;-47
2022/02/20 03:02:31;;;;;;;3.03;1.70;;;3.80;99.90;;;;;;5057616;28;20226;-43
2022/02/20 03:05:03;;;;;;;2.87;1.63;;;3.80;99.90;;;;;;5048009;28;20551;-49
2022/02/20 03:07:31;;;;;;;2.37;1.90;;;3.80;99.90;;;;;;5063129;28;20214;-48
2022/02/20 03:09:59;;;;;;;3.50;1.70;;;3.80;99.90;;;;;;5067410;28;20221;-47
2022/02/20 03:12:27;;;;;;;2.37;2.17;;;3.80;99.90;;;;;;5073691;28;20309;-45
2022/02/20 03:14:54;;;;;;;2.60;2.10;;;3.80;99.90;;;;;;5066695;28;20205;-45
2022/02/20 03:17:21;;;;;;;1.90;1.80;;;3.80;99.90;;;;;;5064622;28;20222;-43
2022/02/20 03:19:47;;;;;;;3.10;2.53;;;3.70;99.90;;;;;;5070879;28;20227;-47
2022/02/20 03:22:15;;;;;;;2.33;2.10;;;3.70;99.90;;;;;;5050580;28;20746;-47
2022/02/20 03:24:42;;;;;;;2.90;2.70;;;3.70;99.90;;;;;;5068849;28;20222;-45
2022/02/20 03:27:10;;;;;;;2.97;2.70;;;3.70;99.90;;;;;;5080386;28;20198;-44
2022/02/20 03:29:40;;;;;;;3.60;3.30;;;3.70;99.90;;;;;;5081805;28;20225;-46
2022/02/20 03:32:08;;;;;;;4.23;3.67;;;3.70;99.90;;;;;;5083901;28;20251;-46
2022/02/20 03:34:35;;;;;;;5.00;3.10;;;3.70;99.90;;;;;;5063811;28;20225;-47
2022/02/20 03:37:02;;;;;;;3.90;3.50;;;3.70;99.90;;;;;;5053682;28;20303;-43
2022/02/20 03:39:34;;;;;;;5.37;3.47;;;3.70;99.90;;;;;;5067778;28;20221;-43
2022/02/20 03:42:07;;;;;;;3.23;3.03;;;3.80;99.90;;;;;;5064717;28;20281;-46
2022/02/20 03:44:54;;;;;;;5.23;4.07;;;3.70;99.90;;;;;;5072476;28;20202;-43
2022/02/20 03:47:21;;;;;;;3.90;3.60;;;3.70;99.90;;;;;;5061444;28;20203;-48
2022/02/20 03:49:56;;;;;;;3.77;3.47;;;3.70;99.90;;;;;;5079455;28;20308;-44
2022/02/20 03:52:32;;;;;;;5.00;4.57;;;3.70;99.90;;;;;;5055001;28;20198;-43
2022/02/20 03:55:01;;;;;;;7.50;4.27;;;3.80;99.90;;;;;;5068144;28;20202;-43
2022/02/20 03:57:33;;;;;;;5.07;4.63;;;3.70;99.90;;;;;;5061659;28;20297;-44
2022/02/20 04:00:27;;;;;;;5.40;4.60;;;3.70;99.90;;;;;;5055944;28;20226;-46
2022/02/20 04:03:10;;;;;;;7.30;5.07;;;3.80;99.90;;;;;;5070085;28;20619;-45
2022/02/20 04:05:40;;;;;;;6.37;5.37;;;3.70;99.90;;;;;;5061907;28;20191;-45
2022/02/20 04:08:09;;;;;;;5.77;5.17;;;3.70;99.90;;;;;;5049625;28;20207;-44
2022/02/20 04:10:37;;;;;;;6.17;5.57;;;3.70;99.90;;;;;;5066430;28;20962;-44
2022/02/20 04:13:08;;;;;;;6.50;5.37;;;3.70;99.90;;;;;;5063628;28;20764;-43
2022/02/20 04:15:46;;;;;;;7.97;5.87;;;3.70;99.90;;;;;;5081293;28;20293;-45
2022/02/20 04:18:21;;;;;;;7.90;7.03;;;3.70;99.90;;;;;;5075067;28;20701;-45
2022/02/20 04:21:03;;;;;;;7.93;7.07;;;3.80;99.90;;;;;;5076764;28;20255;-43
2022/02/20 04:23:32;;;;;;;7.13;6.43;;;3.80;99.90;;;;;;5049598;28;20195;-43
2022/02/20 04:26:01;;;;;;;7.97;7.10;;;3.80;99.90;;;;;;5069184;28;20199;-44
2022/02/20 04:28:32;;;;;;;7.77;7.07;;;3.80;99.90;;;;;;5059587;28;20960;-46
2022/02/20 04:31:01;;;;;;;7.43;6.73;;;3.80;99.90;;;;;;5070383;28;20214;-43
2022/02/20 04:33:29;;;;;;;10.97;7.63;;;3.80;99.90;;;;;;5072469;28;20206;-47
2022/02/20 04:35:59;;;;;;;8.83;6.97;;;3.80;99.90;;;;;;5073723;28;20236;-45
2022/02/20 04:38:26;;;;;;;12.30;7.90;;;3.80;99.90;;;;;;5047117;28;20275;-45
2022/02/20 04:40:54;;;;;;;8.47;7.27;;;3.80;99.90;;;;;;5066964;28;20214;-45
2022/02/20 04:43:29;;;;;;;9.83;8.07;;;3.80;99.90;;;;;;5067884;28;20205;-45
2022/02/20 04:46:00;;;;;;;10.77;7.70;;;3.80;99.90;;;;;;5075025;28;20206;-43
2022/02/20 04:48:29;;;;;;;10.57;8.63;;;3.80;99.90;;;;;;5079024;28;20905;-43
2022/02/20 04:50:56;;;;;;;10.67;8.37;;;3.80;99.90;;;;;;5076003;28;20636;-43
2022/02/20 04:53:24;;;;;;;10.30;7.97;;;3.80;99.90;;;;;;5064379;28;20300;-49
2022/02/20 04:55:59;;;;;;;13.13;8.83;;;3.80;99.90;;;;;;5069620;28;20312;-44
2022/02/20 04:58:34;;;;;;;10.77;8.70;;;3.80;99.90;;;;;;5067077;28;20932;-44
2022/02/20 05:01:05;;;;;;;10.63;8.37;;;3.90;99.90;;;;;;5074923;28;20268;-43
2022/02/20 05:04:08;;;;;;;10.73;8.93;;;3.90;99.90;;;;;;5001867;28;20212;-49
2022/02/20 05:06:43;;;;;;;12.63;8.73;;;3.90;99.90;;;;;;5056149;28;20190;-44
2022/02/20 05:09:15;;;;;;;11.37;8.50;;;3.90;99.90;;;;;;5048474;28;20230;-45
2022/02/20 05:11:52;;;;;;;11.23;9.20;;;3.90;99.90;;;;;;5067644;28;20202;-48
2022/02/20 05:14:19;;;;;;;12.97;9.10;;;3.90;99.90;;;;;;5080749;28;20202;-45
2022/02/20 05:16:49;;;;;;;13.23;9.37;;;3.90;99.90;;;;;;5072023;28;20271;-43
2022/02/20 05:19:24;;;;;;;14.23;9.43;;;3.90;99.90;;;;;;5058678;28;20230;-44
2022/02/20 05:21:56;;;;;;;12.23;9.20;;;3.90;99.90;;;;;;5075974;28;20240;-44
2022/02/20 05:24:24;;;;;;;15.87;10.87;;;3.90;99.90;;;;;;5045799;28;20687;-44
2022/02/20 05:26:54;;;;;;;13.33;9.93;;;3.90;99.90;;;;;;5062024;28;20202;-42
2022/02/20 05:29:22;;;;;;;11.93;9.53;;;3.90;99.90;;;;;;5059109;28;20234;-45
2022/02/20 05:31:55;;;;;;;12.87;8.70;;;3.90;99.90;;;;;;5074465;28;20205;-43
2022/02/20 05:34:29;;;;;;;13.43;9.80;;;3.90;99.90;;;;;;5077589;28;20202;-44
2022/02/20 05:36:56;;;;;;;11.60;9.43;;;3.90;99.90;;;;;;5059678;28;20210;-45
2022/02/20 05:39:34;;;;;;;14.10;10.23;;;3.90;99.90;;;;;;5057315;28;20225;-45
2022/02/20 05:42:02;;;;;;;13.30;9.70;;;3.90;99.90;;;;;;5066858;28;20924;-44
2022/02/20 05:44:29;;;;;;;16.90;9.67;;;4.00;99.90;;;;;;5065778;28;20198;-43
2022/02/20 05:46:59;;;;;;;11.67;8.43;;;4.00;99.90;;;;;;5068083;28;20213;-43
2022/02/20 05:49:27;;;;;;;12.70;9.27;;;4.00;99.90;;;;;;5069094;28;20214;-43
2022/02/20 05:51:57;;;;;;;15.40;9.10;;;3.90;99.90;;;;;;5062208;28;20698;-43
2022/02/20 05:54:33;;;;;;;11.80;8.47;;;3.90;99.90;;;;;;5045769;28;20574;-43
2022/02/20 05:57:00;;;;;;;14.23;7.80;;;3.90;99.90;;;;;;5061566;28;20272;-43
2022/02/20 05:59:27;;;;;;;9.70;7.97;;;3.90;99.90;;;;;;5057875;28;20222;-44
2022/02/20 06:01:56;;;;;;;11.33;8.07;;;3.90;99.90;;;;;;5068751;28;20210;-46
2022/02/20 06:04:27;;;;;;;8.87;7.27;;;3.90;99.90;;;;;;5058337;28;20289;-44
2022/02/20 06:07:18;;;;;;;13.93;8.30;;;3.90;99.90;;;;;;5053910;28;20202;-48
2022/02/20 06:10:04;;;;;;;9.43;6.47;;;3.90;99.90;;;;;;5070969;28;20225;-44
2022/02/20 06:12:54;;;;;;;9.00;6.93;;;3.90;99.90;;;;;;5051049;28;20203;-45
2022/02/20 06:15:38;;;;;;;10.80;6.83;;;3.90;99.90;;;;;;5066891;28;20194;-46
2022/02/20 06:18:15;;;;;;;10.77;7.07;;;3.90;99.90;;;;;;5079181;28;20229;-46
2022/02/20 06:20:58;;;;;;;10.43;6.83;;;3.90;99.90;;;;;;5081191;28;20229;-42
2022/02/20 06:23:45;;;;;;;10.17;7.27;;;3.90;99.90;;;;;;5070012;28;20859;-47
2022/02/20 06:26:31;;;;;;;10.07;6.63;;;3.90;99.90;;;;;;5053002;28;20295;-46
2022/02/20 06:28:58;;;;;;;8.83;6.97;;;3.90;99.90;;;;;;5061146;28;20214;-43
2022/02/20 06:31:25;;;;;;;8.23;7.10;;;3.90;99.90;;;;;;5061591;28;20658;-44
2022/02/20 06:33:52;;;;;;;8.97;6.63;;;3.90;99.90;;;;;;5071254;28;20217;-43
2022/02/20 06:36:22;;;;;;;8.67;6.43;;;3.90;99.90;;;;;;5073774;28;20208;-44
2022/02/20 06:38:49;;;;;;;11.50;6.77;;;3.90;99.90;;;;;;5066791;28;20217;-43
2022/02/20 06:41:16;;;;;;;9.33;6.63;;;3.90;99.90;;;;;;5052522;28;20714;-43
2022/02/20 06:43:54;;;;;;;7.57;5.70;;;3.90;99.90;;;;;;5073177;28;20659;-45
2022/02/20 06:46:44;;;;;;;11.30;6.17;;;3.90;99.90;;;;;;5042443;28;20754;-43
2022/02/20 06:49:29;;;;;;;6.93;5.80;;;3.90;99.90;;;;;;5055044;28;20267;-43
2022/02/20 06:52:10;;;;;;;11.10;6.07;;;3.90;99.90;;;;;;5059155;28;20706;-46
2022/02/20 06:54:57;;;;;;;8.20;5.90;;;3.90;99.90;;;;;;5054346;28;20264;-47
2022/02/20 06:57:44;;;;;;;8.10;6.07;;;3.80;99.90;;;;;;5051770;28;20207;-44
2022/02/20 07:00:13;;;;;;;12.27;7.10;;;3.80;99.90;;;;;;5067369;28;20230;-48
2022/02/20 07:02:40;;;;;;;9.87;7.57;;;3.80;99.90;;;;;;5062408;28;20211;-48
2022/02/20 07:05:08;;;;;;;9.37;7.20;;;3.80;99.90;;;;;;5064967;28;20579;-43
2022/02/20 07:07:37;;;;;;;12.80;7.80;;;3.90;99.90;;;;;;5050244;28;20200;-43
2022/02/20 07:10:07;;;;;;;10.77;8.20;;;3.90;99.90;;;;;;5064077;28;20229;-47
2022/02/20 07:12:34;;;;;;;12.67;8.13;;;3.90;99.90;;;;;;5044461;28;20437;-45
2022/02/20 07:15:01;;;;;;;10.07;6.53;;;3.90;99.90;;;;;;5046069;28;20203;-43
2022/02/20 07:17:28;;;;;;;11.67;7.13;;;3.90;99.90;;;;;;5067155;28;20689;-44
2022/02/20 07:19:54;;;;;;;10.33;7.13;;;3.90;99.90;;;;;;5060765;28;20226;-44
2022/02/20 07:22:21;;;;;;;7.63;6.00;;;3.90;99.90;;;;;;5056409;28;20734;-46
2022/02/20 07:24:50;;;;;;;8.27;6.23;;;3.90;99.90;;;;;;5064995;28;20191;-43
2022/02/20 07:27:16;;;;;;;6.37;5.17;;;3.90;99.90;;;;;;5059346;28;20582;-43
2022/02/20 07:29:43;;;;;;;7.43;5.23;;;3.90;99.90;;;;;;5064448;28;20234;-43
2022/02/20 07:32:10;;;;;;;6.13;4.30;;;3.90;99.90;;;;;;5083726;28;20200;-47
2022/02/20 07:34:37;;;;;;;5.53;3.90;;;3.90;99.90;;;;;;5067926;28;20562;-48
2022/02/20 07:37:05;;;;;;;4.90;4.37;;;3.90;99.90;;;;;;5059965;28;20210;-43
2022/02/20 07:39:31;;;;;;;6.37;4.77;;;3.80;99.90;;;;;;5058432;28;20237;-43
2022/02/20 07:41:59;;;;;;;5.03;3.80;;;3.90;99.90;;;;;;5074169;28;20190;-43
2022/02/20 07:44:27;;;;;;;6.47;4.10;;;3.90;99.90;;;;;;5053147;28;20210;-47
2022/02/20 07:46:54;;;;;;;6.07;4.00;;;3.90;99.90;;;;;;5067340;28;20197;-45
2022/02/20 07:49:21;;;;;;;4.50;3.67;;;3.90;99.90;;;;;;5083127;28;20299;-43
2022/02/20 07:51:49;;;;;;;5.03;3.97;;;3.90;99.90;;;;;;5074655;28;20190;-44
2022/02/20 07:54:15;;;;;;;4.43;3.83;;;3.90;99.90;;;;;;5062056;28;20209;-43
2022/02/20 07:56:42;;;;;;;5.30;4.17;;;4.00;99.90;;;;;;5076813;28;20209;-42
2022/02/20 07:59:10;;;;;;;4.63;4.13;;;4.00;99.90;;;;;;5061702;28;20230;-42
2022/02/20 08:01:37;;;;;;;5.03;4.00;;;4.00;99.90;;;;;;5062204;28;20206;-42
2022/02/20 08:04:04;;;;;;;6.70;4.13;;;4.00;99.90;;;;;;5067430;28;20849;-45
2022/02/20 08:06:31;;;;;;;5.93;4.00;;;4.00;99.90;;;;;;5057971;28;20217;-42
2022/02/20 08:09:01;;;;;;;4.67;3.73;;;4.00;99.90;;;;;;5055271;28;20218;-45
2022/02/20 08:11:28;;;;;;;6.93;4.53;;;4.00;99.90;;;;;;5062639;28;20207;-43
2022/02/20 08:13:55;;;;;;;8.63;5.53;;;4.00;99.90;;;;;;5044371;28;20199;-43
2022/02/20 08:16:24;;;;;;;5.33;4.23;;;4.00;99.90;;;;;;5063726;28;20816;-41
2022/02/20 08:18:51;;;;;;;4.73;4.27;;;3.90;99.90;;;;;;5061708;28;20327;-43
2022/02/20 08:21:18;;;;;;;4.43;4.03;;;4.00;99.90;;;;;;5059607;28;20690;-42
2022/02/20 08:23:46;;;;;;;4.37;3.53;;;4.00;99.90;;;;;;5061189;28;20194;-43
2022/02/20 08:26:13;;;;;;;7.30;4.20;;;4.00;99.90;;;;;;5060173;28;20632;-45
2022/02/20 08:28:40;;;;;;;4.13;3.60;;;4.00;99.90;;;;;;5081140;28;20187;-42
2022/02/20 08:31:06;;;;;;;4.97;4.47;;;4.00;99.90;;;;;;5051853;28;20280;-42
2022/02/20 08:33:35;;;;;;;4.17;3.77;;;4.00;99.90;;;;;;5066374;28;20209;-42
2022/02/20 08:36:02;;;;;;;3.60;3.30;;;4.00;99.90;;;;;;5074433;28;20204;-42
2022/02/20 08:38:29;;;;;;;5.20;2.93;;;4.00;99.90;;;;;;5061351;28;20195;-45
2022/02/20 08:40:57;;;;;;;5.20;3.47;;;4.00;99.90;;;;;;5056511;28;20206;-44
2022/02/20 08:43:26;;;;;;;3.60;3.30;;;4.00;99.90;;;;;;5063409;28;20191;-42
2022/02/20 08:45:53;;;;;;;4.07;3.63;;;4.00;99.90;;;;;;5043612;28;20201;-42
2022/02/20 08:48:20;;;;;;;3.57;3.20;;;4.00;99.90;;;;;;5063464;28;20221;-44
2022/02/20 08:50:48;;;;;;;3.73;3.43;;;4.00;99.90;;;;;;5066092;28;20229;-47
2022/02/20 08:53:15;;;;;;;4.90;3.60;;;4.00;99.90;;;;;;5071560;28;20866;-45
2022/02/20 08:55:42;;;;;;;4.37;3.80;;;4.00;99.90;;;;;;5055698;28;20190;-47
2022/02/20 08:58:09;;;;;;;5.03;4.40;;;4.00;99.90;;;;;;5062111;28;20619;-45
2022/02/20 09:00:38;;;;;;;4.60;4.07;;;3.90;99.90;;;;;;5051796;28;20242;-44
2022/02/20 09:03:04;;;;;;;4.70;4.30;;;3.90;99.90;;;;;;5066710;28;20277;-46
2022/02/20 09:05:31;;;;;;;4.60;3.73;;;3.90;99.90;;;;;;5074366;28;20589;-43
2022/02/20 09:07:59;;;;;;;3.87;3.57;;;3.90;99.90;;;;;;5069347;28;20197;-43
2022/02/20 09:10:27;;;;;;;4.90;4.40;;;3.80;99.90;;;;;;5067304;28;20245;-45
2022/02/20 09:12:54;;;;;;;5.10;3.50;;;3.70;99.90;;;;;;5059381;28;20263;-44
2022/02/20 09:15:21;;;;;;;4.40;3.47;;;3.70;99.90;;;;;;5064928;28;20546;-43
2022/02/20 09:17:48;;;;;;;5.50;3.90;;;3.70;99.90;;;;;;5041266;28;20358;-45
2022/02/20 09:20:15;;;;;;;4.57;4.00;;;3.70;99.90;;;;;;5065093;28;20220;-45
2022/02/20 09:22:42;;;;;;;4.63;4.10;;;3.70;99.90;;;;;;5058270;28;20195;-43
2022/02/20 09:25:11;;;;;;;5.33;4.20;;;3.60;99.90;;;;;;5074211;28;20252;-43
2022/02/20 09:27:38;;;;;;;4.13;3.73;;;3.60;99.90;;;;;;5055501;28;20206;-43
2022/02/20 09:30:05;;;;;;;7.60;4.53;;;3.60;99.90;;;;;;5067879;28;20221;-44
2022/02/20 09:32:33;;;;;;;4.63;4.23;;;3.60;99.90;;;;;;5052827;28;20219;-43
2022/02/20 09:35:00;;;;;;;5.50;5.00;;;3.60;99.90;;;;;;5061695;28;20198;-45
2022/02/20 09:37:28;;;;;;;4.50;4.10;;;3.70;99.90;;;;;;5052997;28;20553;-42
2022/02/20 09:39:55;;;;;;;6.03;4.67;;;3.70;99.90;;;;;;5056485;28;20214;-42
2022/02/20 09:42:23;;;;;;;4.43;4.03;;;3.70;99.90;;;;;;5056995;28;20723;-45
2022/02/20 09:44:50;;;;;;;4.87;4.27;;;3.70;99.90;;;;;;5055084;28;20203;-45
2022/02/20 09:47:18;;;;;;;5.37;4.77;;;3.70;99.90;;;;;;5062873;28;20202;-47
2022/02/20 09:49:45;;;;;;;4.77;4.20;;;3.70;99.90;;;;;;5051137;28;20229;-43
2022/02/20 09:52:12;;;;;;;5.27;4.47;;;3.80;99.90;;;;;;5061111;28;20194;-43
2022/02/20 09:54:39;;;;;;;3.83;3.30;;;3.80;99.90;;;;;;5068578;28;20195;-43
2022/02/20 09:57:06;;;;;;;4.17;3.77;;;3.80;99.90;;;;;;5066684;28;20268;-43
2022/02/20 09:59:35;;;;;;;4.73;3.97;;;3.70;99.90;;;;;;5059764;28;20221;-44
2022/02/20 10:02:05;;;;;;;5.00;3.63;;;3.80;99.90;;;;;;5059748;28;20201;-46
2022/02/20 10:04:45;;;;;;;3.80;3.50;;;3.80;99.90;;;;;;5051104;28;20206;-43
2022/02/20 10:07:29;;;;;;;3.80;3.43;;;3.80;99.90;;;;;;5056189;28;20206;-45
2022/02/20 10:09:57;;;;;;;3.70;3.40;;;3.70;99.90;;;;;;5059934;28;20234;-43
2022/02/20 10:12:26;;;;;;;4.50;4.07;;;3.70;99.90;;;;;;5069687;28;20197;-45
2022/02/20 10:14:54;;;;;;;4.00;3.43;;;3.70;99.90;;;;;;5061417;28;20198;-50
2022/02/20 10:17:22;;;;;;;4.10;3.70;;;3.70;99.90;;;;;;5063238;28;20224;-44
2022/02/20 10:20:08;;;;;;;4.30;3.57;;;3.70;99.90;;;;;;5051421;28;21841;-44
2022/02/20 10:22:54;;;;;;;3.77;3.30;;;3.70;99.90;;;;;;5052376;28;20284;-46
2022/02/20 10:25:49;;;;;;;3.57;3.27;;;3.70;99.90;;;;;;5063682;28;20293;-49
2022/02/20 10:28:34;;;;;;;3.77;3.43;;;3.70;99.90;;;;;;5056264;28;22879;-49
2022/02/20 10:31:06;;;;;;;3.23;2.93;;;3.60;99.90;;;;;;5060418;28;20256;-45
2022/02/20 10:33:33;;;;;;;3.30;3.00;;;3.60;99.90;;;;;;5069551;28;20283;-47
2022/02/20 10:35:59;;;;;;;3.33;2.93;;;3.60;99.90;;;;;;5054342;28;20218;-44
2022/02/20 10:38:28;;;;;;;3.77;3.30;;;3.60;99.90;;;;;;5068215;28;20214;-45
2022/02/20 10:40:56;;;;;;;4.03;2.77;;;3.60;99.90;;;;;;5075274;28;20221;-44
2022/02/20 10:43:28;;;;;;;3.60;2.90;;;3.60;99.90;;;;;;5068889;28;20213;-43
2022/02/20 10:46:11;;;;;;;3.27;2.77;;;3.60;99.90;;;;;;5075084;28;20194;-44
2022/02/20 10:48:40;;;;;;;4.17;2.67;;;3.60;99.90;;;;;;5061336;28;20241;-43
2022/02/20 10:51:06;;;;;;;3.17;2.87;;;3.60;99.90;;;;;;5065221;28;20195;-44
2022/02/20 10:53:34;;;;;;;3.13;2.60;;;3.50;99.90;;;;;;5060510;28;20337;-44
2022/02/20 10:56:01;;;;;;;3.00;2.70;;;3.50;99.90;;;;;;5066455;28;20234;-44
2022/02/20 10:58:29;;;;;;;3.07;2.77;;;3.50;99.90;;;;;;5057795;28;21491;-44
2022/02/20 11:00:58;;;;;;;3.53;2.70;;;3.60;99.90;;;;;;5067884;28;20234;-46
2022/02/20 11:03:28;;;;;;;2.77;2.57;;;3.60;99.90;;;;;;5051746;28;20214;-44
2022/02/20 11:05:56;;;;;;;2.40;2.20;;;3.60;99.90;;;;;;5063649;28;20199;-44
2022/02/20 11:08:24;;;;;;;2.80;2.60;;;3.60;99.90;;;;;;5052253;28;20547;-44
2022/02/20 11:10:52;;;;;;;2.80;2.60;;;3.70;99.90;;;;;;5065607;28;20222;-46
2022/02/20 11:13:22;;;;;;;4.90;2.90;;;3.70;99.90;;;;;;5069458;28;20213;-43
2022/02/20 11:15:51;;;;;;;2.80;2.60;;;3.70;99.90;;;;;;5062667;28;20210;-45
2022/02/20 11:18:21;;;;;;;2.43;2.33;;;3.80;99.90;;;;;;5057755;28;20226;-45
2022/02/20 11:20:52;;;;;;;3.00;2.70;;;3.80;99.90;;;;;;5064654;28;20716;-45
2022/02/20 11:23:24;;;;;;;2.83;2.63;;;3.80;99.90;;;;;;5056052;28;20743;-44
2022/02/20 11:25:53;;;;;;;2.70;2.50;;;3.90;99.90;;;;;;5063681;28;20195;-44
2022/02/20 11:28:19;;;;;;;4.23;2.90;;;3.90;99.90;;;;;;5063586;28;20210;-45
2022/02/20 11:30:47;;;;;;;3.03;2.77;;;3.90;99.90;;;;;;5062915;28;20231;-47
2022/02/20 11:33:14;;;;;;;3.00;2.80;;;4.00;99.90;;;;;;5061425;28;20207;-44
2022/02/20 11:35:44;;;;;;;4.57;3.03;;;4.00;99.90;;;;;;5065540;28;20405;-49
2022/02/20 11:38:14;;;;;;;3.47;3.17;;;4.00;99.90;;;;;;5059743;28;20201;-46
2022/02/20 11:40:57;;;;;;;3.40;3.10;;;4.00;99.90;;;;;;5051412;28;20225;-47
2022/02/20 11:43:38;;;;;;;3.13;2.93;;;4.00;99.90;;;;;;5061496;28;20210;-45
2022/02/20 11:46:08;;;;;;;5.10;3.83;;;4.10;99.90;;;;;;5057297;28;20203;-44
2022/02/20 11:48:35;;;;;;;4.23;3.40;;;4.20;99.90;;;;;;5049512;28;20264;-45
2022/02/20 11:51:18;;;;;;;5.03;3.43;;;4.20;99.90;;;;;;5057431;28;20211;-44
2022/02/20 11:53:48;;;;;;;3.50;3.20;;;4.20;99.90;;;;;;5049787;28;20284;-43
2022/02/20 11:56:15;;;;;;;3.80;3.40;;;4.20;99.90;;;;;;5061532;28;20195;-43
2022/02/20 11:58:47;;;;;;;5.27;3.73;;;4.30;99.90;;;;;;5074808;28;20198;-48
2022/02/20 12:01:16;;;;;;;6.33;4.00;;;4.40;99.90;;;;;;5066505;28;20237;-44
2022/02/20 12:04:03;;;;;;;5.20;4.20;;;4.40;99.90;;;;;;5054592;28;20669;-42
2022/02/20 12:06:38;;;;;;;5.07;4.40;;;4.50;99.90;;;;;;5063856;28;20213;-47
2022/02/20 12:09:27;;;;;;;4.30;3.90;;;4.60;99.90;;;;;;5057341;28;20222;-43
2022/02/20 12:11:54;;;;;;;5.40;4.77;;;4.70;99.90;;;;;;5059785;28;20199;-44
2022/02/20 12:14:25;;;;;;;4.90;4.27;;;4.70;99.90;;;;;;5059120;28;20202;-44
2022/02/20 12:16:54;;;;;;;4.73;4.33;;;4.80;99.90;;;;;;5059381;28;20214;-46
2022/02/20 12:19:25;;;;;;;3.60;3.30;;;4.90;99.90;;;;;;5054967;28;20237;-43
2022/02/20 12:21:57;;;;;;;5.27;4.77;;;5.10;99.90;;;;;;5059684;28;20286;-42
2022/02/20 12:24:40;;;;;;;5.47;4.67;;;5.30;99.90;;;;;;5056480;28;20203;-45
2022/02/20 12:27:07;;;;;;;4.23;3.83;;;5.50;99.90;;;;;;5046388;28;20212;-45
2022/02/20 12:29:37;;;;;;;8.67;4.77;;;5.70;99.90;;;;;;5058771;28;20942;-43
2022/02/20 12:32:14;;;;;;;6.10;5.50;;;5.80;99.90;;;;;;5055984;28;20202;-45
2022/02/20 12:34:46;;;;;;;3.90;3.57;;;5.90;99.90;;;;;;5052088;28;20265;-43
2022/02/20 12:37:14;;;;;;;7.13;4.60;;;6.10;99.90;;;;;;5060692;28;20206;-46
2022/02/20 12:39:42;;;;;;;5.40;3.77;;;6.10;99.90;;;;;;5069219;28;20210;-43
2022/02/20 12:42:09;;;;;;;5.57;4.27;;;6.30;99.90;;;;;;5056945;28;20218;-43
2022/02/20 12:44:38;;;;;;;5.23;3.50;;;6.40;99.90;;;;;;5060347;28;20198;-43
2022/02/20 12:47:06;;;;;;;4.23;3.90;;;6.50;99.90;;;;;;5057889;28;20259;-43
2022/02/20 12:49:32;;;;;;;4.30;3.60;;;6.50;99.90;;;;;;5062570;28;20245;-43
2022/02/20 12:52:03;;;;;;;4.27;3.87;;;6.60;99.90;;;;;;5052922;28;20207;-42
2022/02/20 12:54:30;;;;;;;6.20;5.43;;;6.70;99.90;;;;;;5061610;28;20450;-43
2022/02/20 12:57:02;;;;;;;5.73;4.70;;;6.70;99.90;;;;;;5060618;28;20246;-45
2022/02/20 12:59:30;;;;;;;4.77;4.33;;;6.80;99.90;;;;;;5060696;28;20236;-47
2022/02/20 13:02:02;;;;;;;4.80;4.37;;;6.90;99.90;;;;;;5062784;28;20256;-42
2022/02/20 13:04:29;;;;;;;4.53;4.13;;;7.00;99.90;;;;;;5055053;28;20289;-44
2022/02/20 13:07:00;;;;;;;4.87;4.43;;;7.00;99.90;;;;;;5051875;28;20205;-45
2022/02/20 13:09:28;;;;;;;7.73;4.20;;;7.10;99.90;;;;;;5062712;28;20225;-45
2022/02/20 13:11:55;;;;;;;4.27;3.63;;;7.10;99.90;;;;;;5065147;28;20201;-43
2022/02/20 13:14:24;;;;;;;4.90;4.23;;;7.20;99.90;;;;;;5045457;28;20738;-44